Home PIREPS Pireps

Flight BEL3815

  • Submitted By: Vincent Fourni
  • Departure Airport: Bruxelles National (EBBR)
  • Arrival Airport: Lisboa / Portela (LPPT)
  • Aircraft: A320-214 (OO-SNA)
  • Flight Time: 02.30
  • Date Submitted: 13/02/2018
  • Status: Accepted
Flight Details
Gross Revenue:
(132 load / € 232.00 per unit
€ 30,624.00
Fuel Cost:
(8421 fuel used @ 5.1 / unit)
€ 42,947.10

Additional Log Information:

View Log

Aircraft Used in flight is PMDG 737-800NGX Brussels Airlines Winglets
13:52 Brakes are On
13:53 Brakes are Released
13:53 In Air Refuel Suspected
13:57 You Took off @ 165 Knots and Flaps at Position 3
Departure Weather
EBBR 131220Z 19017KT 150V210 9999 FEW040 05/M04 Q1009 NOSIGrn
13:58 Landing Gear Up @ 181 Knots and 380 Feet
16:10 Below FL100 you need to turn on the landing lights
16:16 Landing Gear Down @ 177 Knots and 3940 Feet
16:21 You Landed @ 115 Knots and with -400 Vertical Speed
Arrival Weather
LPPT 131500Z 24011KT 210V270 9999 FEW032 BKN042 13/07 Q1023rn
16:21 Paused
16:22 Unpaused
16:23 Paused
16:25 Unpaused
16:25 Brakes are On
16:27 Brussels Bel-Track1.0.1.2

Route Map

Corporate About Us Our Team Vacancies Information Fleet Route Network Rules and Regulations Operations Flight Schedules Event Center Tours Partners IVAO Vatsim Acars dev FSCB

fb Users Online No pilots online!
0 Pilot(s) and 119 Guest(s) Online
CMS by phpVMS - Design by Crazycreatives.com - Copyright © 2020 - Brussels Airlines Virtual